Time;durP1;ratioP1;P1;durP2;ratioP2;P2;SDS_P1;SDS_P2;PMS_P1;PMS_P2;Temp;Humidity;BMP_temperature;BMP_pressure;BME280_temperature;BME280_humidity;BME280_pressure;Samples;Min_cycle;Max_cycle;Signal;HPM_P1;HPM_P2
2022/01/17 00:01:06;;;;;;;18.35;3.25;;;6.60;94.30;;;;;;4991191;28;20050;-59
2022/01/17 00:03:33;;;;;;;16.23;2.97;;;6.60;94.20;;;;;;4991776;28;20050;-60
2022/01/17 00:05:59;;;;;;;14.52;2.55;;;6.60;94.10;;;;;;4991082;28;20054;-59
2022/01/17 00:08:26;;;;;;;24.60;2.55;;;6.50;93.90;;;;;;4990455;28;20521;-60
2022/01/17 00:10:53;;;;;;;21.75;3.20;;;6.50;93.90;;;;;;4992358;28;20069;-59
2022/01/17 00:13:26;;;;;;;18.95;2.25;;;6.60;93.70;;;;;;4995509;28;20054;-59
2022/01/17 00:15:58;;;;;;;17.13;2.83;;;6.50;93.60;;;;;;4994672;28;21790;-59
2022/01/17 00:18:52;;;;;;;24.92;3.35;;;6.60;93.70;;;;;;4995174;28;20054;-59
2022/01/17 00:21:18;;;;;;;12.68;2.20;;;6.60;93.60;;;;;;4994520;28;20648;-59
2022/01/17 00:23:45;;;;;;;15.10;2.28;;;6.60;93.70;;;;;;4995805;28;21666;-59
2022/01/17 00:26:12;;;;;;;13.35;2.35;;;6.60;93.40;;;;;;4995786;28;20054;-59
2022/01/17 00:28:39;;;;;;;15.98;2.35;;;6.60;93.40;;;;;;4995099;28;20046;-59
2022/01/17 00:31:08;;;;;;;17.25;2.55;;;6.60;93.40;;;;;;4994636;28;20058;-59
2022/01/17 00:33:36;;;;;;;16.33;2.90;;;6.60;93.40;;;;;;4995484;28;20058;-59
2022/01/17 00:36:04;;;;;;;15.55;2.60;;;6.60;93.40;;;;;;4995396;28;20050;-59
2022/01/17 00:38:30;;;;;;;13.70;2.63;;;6.60;93.40;;;;;;4995952;28;20061;-59
2022/01/17 00:40:57;;;;;;;17.20;3.08;;;6.60;93.70;;;;;;4994459;28;20054;-59
2022/01/17 00:43:25;;;;;;;15.25;2.70;;;6.60;93.50;;;;;;4995322;28;20050;-59
2022/01/17 00:45:52;;;;;;;14.60;2.58;;;6.70;93.60;;;;;;4994150;28;20065;-59
2022/01/17 00:48:20;;;;;;;15.73;2.47;;;6.70;93.60;;;;;;4995139;28;20057;-59
2022/01/17 00:50:47;;;;;;;16.95;3.67;;;6.70;93.70;;;;;;4994842;28;20050;-59
2022/01/17 00:53:14;;;;;;;15.43;2.60;;;6.70;93.70;;;;;;4995290;28;20490;-59
2022/01/17 00:55:41;;;;;;;20.63;4.13;;;6.70;93.60;;;;;;4995014;28;20149;-59
2022/01/17 00:58:08;;;;;;;20.08;3.47;;;6.60;93.60;;;;;;4994951;28;20053;-59
2022/01/17 01:00:36;;;;;;;19.45;2.50;;;6.60;93.50;;;;;;4994927;28;20065;-59
2022/01/17 01:03:02;;;;;;;13.85;2.30;;;6.50;93.50;;;;;;4994801;28;20914;-59
2022/01/17 01:05:31;;;;;;;18.73;2.83;;;6.50;93.50;;;;;;4995279;28;20068;-59
2022/01/17 01:07:58;;;;;;;11.55;2.35;;;6.50;93.60;;;;;;4994818;28;20527;-59
2022/01/17 01:10:25;;;;;;;14.55;2.50;;;6.50;93.60;;;;;;4993268;28;20512;-59
2022/01/17 01:12:54;;;;;;;22.48;3.03;;;6.50;93.50;;;;;;4994971;28;20399;-59
2022/01/17 01:15:33;;;;;;;21.50;2.75;;;6.40;93.50;;;;;;4994882;28;20081;-59
2022/01/17 01:18:12;;;;;;;22.05;3.78;;;6.40;93.60;;;;;;4994665;28;20078;-59
2022/01/17 01:21:03;;;;;;;15.02;2.33;;;6.50;93.60;;;;;;4995035;28;20089;-59
2022/01/17 01:28:58;;;;;;;13.80;2.15;;;6.40;93.70;;;;;;4993967;28;20046;-59
2022/01/17 01:31:39;;;;;;;21.77;2.90;;;6.40;93.70;;;;;;4994294;28;20149;-59
2022/01/17 01:34:07;;;;;;;20.27;2.70;;;6.40;93.70;;;;;;4994060;28;20062;-59
2022/01/17 01:36:36;;;;;;;16.15;2.60;;;6.40;93.70;;;;;;4994894;28;20166;-59
2022/01/17 01:39:05;;;;;;;13.23;2.17;;;6.40;94.00;;;;;;4993414;28;20148;-59
2022/01/17 01:41:40;;;;;;;12.90;2.20;;;6.40;93.80;;;;;;4995544;28;20540;-59
2022/01/17 01:44:12;;;;;;;13.55;2.33;;;6.40;93.80;;;;;;4993367;28;20061;-59
2022/01/17 01:46:38;;;;;;;14.90;2.92;;;6.40;93.90;;;;;;4993773;28;22014;-59
2022/01/17 01:49:05;;;;;;;20.40;2.40;;;6.40;93.90;;;;;;4994310;28;20081;-59
2022/01/17 01:51:32;;;;;;;18.13;2.95;;;6.40;93.90;;;;;;4994470;28;20582;-59
2022/01/17 01:54:01;;;;;;;20.63;2.90;;;6.40;93.90;;;;;;4994868;28;20046;-59
2022/01/17 01:56:27;;;;;;;18.88;2.83;;;6.40;93.90;;;;;;4994529;28;20050;-59
2022/01/17 01:58:55;;;;;;;12.73;2.28;;;6.40;94.00;;;;;;4994523;28;20533;-59
2022/01/17 02:01:21;;;;;;;16.92;2.60;;;6.30;94.00;;;;;;4994244;28;20410;-59
2022/01/17 02:03:48;;;;;;;18.27;2.38;;;6.30;94.00;;;;;;4994511;28;20264;-60
2022/01/17 02:06:15;;;;;;;17.38;2.65;;;6.30;94.10;;;;;;4994054;28;20058;-59
2022/01/17 02:08:42;;;;;;;20.77;3.03;;;6.30;94.10;;;;;;4993349;28;20050;-59
2022/01/17 02:11:11;;;;;;;17.45;2.33;;;6.30;94.20;;;;;;4994079;28;20058;-59
2022/01/17 02:13:39;;;;;;;21.80;2.50;;;6.20;94.20;;;;;;4994275;28;20058;-59
2022/01/17 02:16:11;;;;;;;12.88;2.58;;;6.20;94.20;;;;;;4994367;28;20410;-59
2022/01/17 02:18:38;;;;;;;16.92;2.92;;;6.20;94.40;;;;;;4994256;28;20698;-59
2022/01/17 02:21:19;;;;;;;19.70;2.92;;;6.20;94.50;;;;;;4993511;28;20133;-59
2022/01/17 02:23:48;;;;;;;20.33;2.45;;;6.20;94.50;;;;;;4994028;28;20054;-59
2022/01/17 02:26:17;;;;;;;17.85;2.35;;;6.20;94.60;;;;;;4992672;28;20050;-59
2022/01/17 02:28:48;;;;;;;22.92;2.60;;;6.20;94.60;;;;;;4992667;28;20536;-59
2022/01/17 02:31:15;;;;;;;20.10;2.95;;;6.20;94.60;;;;;;4994036;28;20170;-59
2022/01/17 02:33:42;;;;;;;13.80;2.90;;;6.30;94.70;;;;;;4993564;28;20060;-59
2022/01/17 02:36:11;;;;;;;14.85;3.33;;;6.20;94.70;;;;;;4993106;28;20047;-59
2022/01/17 02:38:39;;;;;;;10.07;2.63;;;6.20;94.70;;;;;;4993621;28;20059;-59
2022/01/17 02:41:06;;;;;;;19.25;2.67;;;6.20;94.70;;;;;;4993767;28;20058;-59
2022/01/17 02:43:33;;;;;;;18.73;2.95;;;6.30;94.80;;;;;;4992617;28;20807;-59
2022/01/17 02:48:46;;;;;;;16.63;2.55;;;6.30;94.80;;;;;;4993261;28;20501;-59
2022/01/17 02:51:14;;;;;;;16.63;2.78;;;6.30;94.80;;;;;;4994013;28;20072;-59
2022/01/17 02:53:41;;;;;;;16.98;2.72;;;6.40;94.90;;;;;;4992830;28;20058;-59
2022/01/17 02:56:10;;;;;;;20.35;3.40;;;6.40;94.80;;;;;;4992777;28;20067;-59
2022/01/17 02:58:40;;;;;;;20.85;2.80;;;6.40;94.80;;;;;;4991993;28;20573;-59
2022/01/17 03:01:11;;;;;;;15.50;2.50;;;6.40;94.70;;;;;;4992146;28;20054;-59
2022/01/17 03:03:37;;;;;;;16.30;2.92;;;6.50;94.70;;;;;;4993223;28;20061;-59
2022/01/17 03:06:04;;;;;;;15.23;2.75;;;6.40;94.70;;;;;;4993778;28;20058;-59
2022/01/17 03:08:34;;;;;;;17.92;3.38;;;6.40;94.70;;;;;;4993414;28;20046;-59
2022/01/17 03:11:05;;;;;;;15.57;2.25;;;6.40;94.70;;;;;;4992553;28;20069;-59
2022/01/17 03:13:34;;;;;;;17.58;2.63;;;6.50;94.70;;;;;;4992055;28;20720;-59
2022/01/17 03:16:04;;;;;;;22.35;2.60;;;6.50;94.70;;;;;;4993251;28;20134;-59
2022/01/17 03:18:32;;;;;;;18.92;3.17;;;6.50;94.80;;;;;;4992410;28;20132;-59
2022/01/17 03:21:00;;;;;;;13.70;3.25;;;6.50;94.70;;;;;;4991915;28;20459;-59
2022/01/17 03:23:28;;;;;;;18.95;3.13;;;6.50;94.70;;;;;;4993138;28;20066;-59
2022/01/17 03:25:56;;;;;;;12.02;2.10;;;6.50;94.70;;;;;;4992495;28;20054;-59
2022/01/17 03:28:25;;;;;;;19.38;2.58;;;6.50;94.70;;;;;;4991302;28;20572;-59
2022/01/17 03:30:52;;;;;;;13.57;3.03;;;6.50;94.70;;;;;;4992788;28;20497;-59
2022/01/17 03:33:19;;;;;;;17.35;2.85;;;6.60;94.80;;;;;;4993156;28;20553;-59
2022/01/17 03:35:46;;;;;;;14.93;3.35;;;6.60;94.80;;;;;;4992124;28;20053;-59
2022/01/17 03:38:16;;;;;;;17.65;3.03;;;6.60;94.70;;;;;;4992818;28;20504;-59
2022/01/17 03:40:46;;;;;;;18.75;3.00;;;6.60;94.70;;;;;;4992067;28;20054;-59
2022/01/17 03:43:14;;;;;;;15.75;3.22;;;6.60;94.70;;;;;;4991241;28;20081;-59
2022/01/17 03:45:41;;;;;;;14.57;2.40;;;6.60;94.70;;;;;;4991357;28;20065;-59
2022/01/17 03:48:09;;;;;;;18.50;3.40;;;6.70;94.80;;;;;;4992451;28;20604;-59
2022/01/17 03:50:36;;;;;;;17.98;3.55;;;6.70;94.70;;;;;;4993035;28;20501;-59
2022/01/17 03:53:03;;;;;;;10.75;2.40;;;6.70;94.80;;;;;;4991889;28;20054;-59
2022/01/17 03:55:33;;;;;;;12.68;2.08;;;6.70;94.80;;;;;;4992376;28;20054;-59
2022/01/17 03:58:01;;;;;;;14.00;2.25;;;6.70;94.80;;;;;;4992130;28;20081;-59
2022/01/17 04:00:33;;;;;;;14.68;2.22;;;6.70;94.90;;;;;;4992463;28;20054;-59
2022/01/17 04:03:00;;;;;;;18.40;3.80;;;6.60;94.90;;;;;;4992111;28;20050;-59
2022/01/17 04:05:27;;;;;;;15.10;2.30;;;6.60;95.10;;;;;;4992746;28;20051;-59
2022/01/17 04:07:54;;;;;;;16.60;2.53;;;6.60;94.90;;;;;;4992508;28;20141;-59
2022/01/17 04:10:21;;;;;;;16.10;2.15;;;6.60;94.90;;;;;;4992910;28;20544;-59
2022/01/17 04:12:48;;;;;;;14.43;2.20;;;6.60;95.00;;;;;;4990475;28;20221;-59
2022/01/17 04:15:15;;;;;;;14.50;2.65;;;6.50;95.00;;;;;;4992331;28;20062;-59
2022/01/17 04:17:44;;;;;;;17.13;3.35;;;6.50;95.00;;;;;;4991431;28;20081;-59
2022/01/17 04:20:15;;;;;;;14.43;2.13;;;6.50;95.10;;;;;;4991874;28;20608;-59
2022/01/17 04:22:50;;;;;;;12.85;1.98;;;6.50;95.20;;;;;;4992227;28;20054;-59
2022/01/17 04:25:17;;;;;;;17.88;3.25;;;6.50;95.30;;;;;;4992128;28;20129;-59
2022/01/17 04:27:44;;;;;;;19.45;2.58;;;6.60;95.40;;;;;;4991682;28;20069;-59
2022/01/17 04:30:13;;;;;;;15.85;2.72;;;6.60;95.40;;;;;;4991701;28;20656;-59
2022/01/17 04:32:41;;;;;;;15.25;2.25;;;6.60;95.70;;;;;;4992128;28;20054;-59
2022/01/17 04:35:10;;;;;;;15.38;1.95;;;6.60;95.50;;;;;;4991144;28;20054;-59
2022/01/17 04:37:37;;;;;;;16.38;2.28;;;6.70;95.50;;;;;;4991637;28;20046;-59
2022/01/17 04:40:05;;;;;;;16.90;2.45;;;6.70;95.50;;;;;;4990486;28;21841;-59
2022/01/17 04:42:32;;;;;;;13.70;2.40;;;6.70;95.60;;;;;;4991403;28;20061;-59
2022/01/17 04:45:08;;;;;;;17.40;2.80;;;6.80;95.70;;;;;;4991709;28;20054;-59
2022/01/17 04:47:37;;;;;;;16.75;2.20;;;6.80;95.70;;;;;;4992063;28;20061;-59
2022/01/17 04:50:04;;;;;;;16.70;2.42;;;6.80;95.70;;;;;;4992320;28;21881;-59
2022/01/17 04:52:34;;;;;;;16.98;3.13;;;6.90;95.70;;;;;;4992635;28;20488;-59
2022/01/17 04:55:02;;;;;;;15.25;2.35;;;6.90;95.70;;;;;;4992101;28;20932;-59
2022/01/17 04:57:29;;;;;;;18.60;2.92;;;6.90;95.80;;;;;;4994431;28;20196;-59
2022/01/17 04:59:56;;;;;;;24.02;3.50;;;6.90;95.90;;;;;;4995558;28;20065;-59
2022/01/17 05:02:24;;;;;;;15.80;3.17;;;6.90;95.90;;;;;;4993997;28;21047;-59
2022/01/17 05:04:51;;;;;;;22.65;4.25;;;6.90;96.00;;;;;;4994612;28;20060;-59
2022/01/17 05:07:18;;;;;;;16.45;2.63;;;7.00;95.90;;;;;;4994884;28;20061;-59
2022/01/17 05:09:47;;;;;;;23.98;2.97;;;7.00;96.00;;;;;;4994893;28;20560;-59
2022/01/17 05:12:14;;;;;;;20.45;3.45;;;7.00;96.00;;;;;;4993005;28;20185;-59
2022/01/17 05:14:45;;;;;;;24.48;3.25;;;7.00;96.00;;;;;;4994698;28;20065;-59
2022/01/17 05:17:34;;;;;;;14.50;2.67;;;7.10;96.10;;;;;;4995096;28;20152;-59
2022/01/17 05:20:01;;;;;;;19.05;2.92;;;7.00;96.10;;;;;;4994293;28;20090;-59
2022/01/17 05:22:32;;;;;;;20.63;3.20;;;7.00;96.20;;;;;;4994240;28;20064;-59
2022/01/17 05:25:00;;;;;;;21.48;3.83;;;7.10;96.20;;;;;;4995143;28;20054;-59
2022/01/17 05:27:27;;;;;;;22.88;3.30;;;7.10;96.20;;;;;;4992883;28;20517;-59
2022/01/17 05:29:54;;;;;;;18.70;3.15;;;7.10;96.30;;;;;;4994221;28;20058;-59
2022/01/17 05:32:21;;;;;;;20.38;3.42;;;7.10;96.30;;;;;;4993710;28;20061;-59
2022/01/17 05:34:48;;;;;;;19.48;3.42;;;7.10;96.30;;;;;;4993833;28;20274;-59
2022/01/17 05:37:15;;;;;;;19.40;3.47;;;7.10;96.30;;;;;;4994367;28;20058;-58
2022/01/17 05:39:43;;;;;;;18.95;3.53;;;7.10;96.40;;;;;;4993143;28;20055;-59
2022/01/17 05:42:14;;;;;;;26.15;3.78;;;7.10;96.40;;;;;;4994565;28;20058;-59
2022/01/17 05:44:42;;;;;;;27.10;3.38;;;7.10;96.40;;;;;;4993950;28;20058;-59
2022/01/17 05:47:09;;;;;;;18.65;3.15;;;7.10;96.40;;;;;;4995340;28;20047;-59
2022/01/17 05:49:35;;;;;;;17.70;3.03;;;7.10;96.50;;;;;;4993974;28;20050;-59
2022/01/17 05:52:03;;;;;;;20.80;3.35;;;7.20;96.50;;;;;;4994638;28;20054;-59
2022/01/17 05:54:29;;;;;;;17.40;2.97;;;7.20;96.40;;;;;;4994664;28;20050;-59
2022/01/17 05:56:56;;;;;;;15.02;3.33;;;7.20;96.40;;;;;;4994264;28;20092;-59
2022/01/17 05:59:24;;;;;;;20.25;3.45;;;7.10;96.30;;;;;;4992763;28;20046;-59
2022/01/17 06:01:51;;;;;;;26.52;4.03;;;7.20;96.40;;;;;;4992071;28;20054;-59
2022/01/17 06:04:19;;;;;;;24.48;4.68;;;7.20;96.40;;;;;;4993276;28;20781;-59
2022/01/17 06:06:46;;;;;;;20.30;3.90;;;7.20;96.40;;;;;;4993359;28;20050;-59
2022/01/17 06:09:12;;;;;;;21.83;3.72;;;7.20;96.50;;;;;;4993987;28;20368;-59
2022/01/17 06:11:39;;;;;;;26.83;4.38;;;7.50;96.60;;;;;;4992817;28;20520;-59
2022/01/17 06:14:07;;;;;;;18.20;3.63;;;7.20;96.60;;;;;;4993510;28;20713;-59
2022/01/17 06:16:36;;;;;;;28.00;4.60;;;7.20;96.60;;;;;;4992611;28;20063;-59
2022/01/17 06:19:03;;;;;;;20.60;3.63;;;7.20;96.70;;;;;;4993485;28;20058;-59
2022/01/17 06:21:30;;;;;;;24.33;4.45;;;7.20;96.70;;;;;;4993438;28;20054;-59
2022/01/17 06:23:58;;;;;;;21.10;5.40;;;7.20;96.70;;;;;;4994219;28;20487;-58
2022/01/17 06:26:25;;;;;;;25.50;4.43;;;7.30;96.90;;;;;;4993754;28;20069;-58
2022/01/17 06:28:52;;;;;;;20.88;3.75;;;7.20;97.00;;;;;;4992799;28;20076;-59
2022/01/17 06:31:19;;;;;;;29.50;3.70;;;7.30;97.10;;;;;;4993418;28;20458;-59
2022/01/17 06:33:47;;;;;;;31.48;4.20;;;7.30;97.20;;;;;;4991577;28;20053;-59
2022/01/17 06:36:14;;;;;;;22.38;4.47;;;7.20;97.20;;;;;;4992776;28;20056;-59
2022/01/17 06:38:41;;;;;;;25.80;4.30;;;7.20;97.50;;;;;;4993124;28;20070;-59
2022/01/17 06:41:08;;;;;;;28.33;4.63;;;7.20;97.50;;;;;;4993083;28;20194;-59
2022/01/17 06:43:34;;;;;;;26.35;4.90;;;7.10;97.70;;;;;;4992278;28;20065;-59
2022/01/17 06:46:01;;;;;;;22.65;3.80;;;7.20;97.80;;;;;;4992586;28;20236;-59
2022/01/17 06:48:28;;;;;;;20.73;3.83;;;7.10;98.00;;;;;;4993204;28;20046;-59
2022/01/17 06:50:56;;;;;;;22.10;4.90;;;7.20;98.20;;;;;;4993559;28;20691;-59
2022/01/17 06:53:26;;;;;;;22.85;4.15;;;7.20;98.00;;;;;;4993720;28;20060;-58
2022/01/17 06:55:53;;;;;;;24.45;3.90;;;7.20;98.10;;;;;;4993102;28;20054;-59
2022/01/17 06:58:20;;;;;;;25.70;4.55;;;7.20;98.00;;;;;;4993784;28;20054;-58
2022/01/17 07:00:46;;;;;;;29.73;4.25;;;7.20;98.20;;;;;;4992999;28;20061;-58
2022/01/17 07:03:14;;;;;;;31.90;5.70;;;7.20;98.20;;;;;;4993341;28;20061;-58
2022/01/17 07:05:41;;;;;;;27.92;4.10;;;7.20;98.30;;;;;;4993692;28;20073;-58
2022/01/17 07:08:09;;;;;;;26.95;4.72;;;7.20;98.40;;;;;;4993600;28;20223;-58
2022/01/17 07:10:36;;;;;;;24.13;4.90;;;7.20;98.30;;;;;;4993439;28;20064;-58
2022/01/17 07:13:03;;;;;;;28.75;5.05;;;7.20;98.40;;;;;;4993589;28;20532;-58
2022/01/17 07:15:30;;;;;;;33.65;5.10;;;7.20;98.60;;;;;;4992808;28;20057;-58
2022/01/17 07:17:57;;;;;;;22.75;3.97;;;7.20;98.50;;;;;;4993598;28;20494;-58
2022/01/17 07:20:24;;;;;;;32.78;6.10;;;7.30;98.60;;;;;;4992455;28;20054;-58
2022/01/17 07:22:51;;;;;;;23.35;4.80;;;7.20;98.60;;;;;;4993635;28;20429;-58
2022/01/17 07:25:19;;;;;;;35.20;9.05;;;7.30;98.70;;;;;;4992789;28;20055;-58
2022/01/17 07:27:46;;;;;;;29.40;7.32;;;7.30;98.80;;;;;;4993097;28;20054;-58
2022/01/17 07:30:13;;;;;;;40.75;8.57;;;7.30;98.70;;;;;;4992773;28;20760;-58
2022/01/17 07:32:40;;;;;;;35.95;7.75;;;7.30;98.70;;;;;;4991450;28;20058;-58
2022/01/17 07:35:09;;;;;;;35.42;9.15;;;7.30;98.70;;;;;;4991905;28;20055;-58
2022/01/17 07:37:36;;;;;;;34.55;7.15;;;7.30;98.70;;;;;;4992754;28;20557;-58
2022/01/17 07:40:05;;;;;;;28.38;8.18;;;7.30;98.80;;;;;;4983096;28;20546;-58
2022/01/17 07:42:33;;;;;;;39.10;8.75;;;7.30;98.70;;;;;;4984937;28;20064;-58
2022/01/17 07:45:09;;;;;;;32.60;6.13;;;7.30;98.80;;;;;;4985040;28;20051;-58
2022/01/17 07:47:42;;;;;;;29.23;6.75;;;7.40;98.80;;;;;;4985840;28;20201;-58
2022/01/17 07:50:14;;;;;;;25.95;4.80;;;7.40;98.70;;;;;;4985944;28;20086;-58
2022/01/17 07:52:41;;;;;;;29.75;5.38;;;7.50;98.60;;;;;;4986751;28;20209;-58
2022/01/17 07:55:09;;;;;;;25.35;4.80;;;7.50;98.60;;;;;;4985926;28;20465;-58
2022/01/17 07:57:38;;;;;;;34.85;4.80;;;7.50;98.60;;;;;;4984898;28;20051;-58
2022/01/17 08:00:07;;;;;;;35.47;5.57;;;7.50;98.60;;;;;;4985591;28;20054;-58
2022/01/17 08:02:34;;;;;;;23.45;4.10;;;7.60;98.50;;;;;;4986486;28;20050;-58
2022/01/17 08:05:01;;;;;;;23.95;4.45;;;7.50;98.50;;;;;;4986676;28;20058;-58
2022/01/17 08:07:28;;;;;;;28.75;4.63;;;7.60;98.40;;;;;;4985939;28;20500;-58
2022/01/17 08:09:55;;;;;;;25.60;4.63;;;7.60;98.40;;;;;;4986052;28;20183;-58
2022/01/17 08:12:22;;;;;;;25.58;4.63;;;7.60;98.40;;;;;;4984888;28;20058;-58
2022/01/17 08:14:50;;;;;;;32.33;4.18;;;7.70;98.40;;;;;;4986236;28;21312;-58
2022/01/17 08:17:17;;;;;;;27.67;4.47;;;7.70;98.30;;;;;;4986251;28;20109;-58
2022/01/17 08:19:44;;;;;;;33.60;5.78;;;7.70;98.30;;;;;;4986659;28;20054;-58
2022/01/17 08:22:11;;;;;;;32.67;5.50;;;7.70;98.30;;;;;;4985778;28;20058;-58
2022/01/17 08:24:38;;;;;;;31.30;5.30;;;7.70;98.30;;;;;;4986425;28;20103;-58
2022/01/17 08:27:05;;;;;;;31.63;5.07;;;7.80;98.30;;;;;;4985447;28;20050;-58
2022/01/17 08:29:33;;;;;;;25.98;5.00;;;7.80;98.30;;;;;;4986634;28;20061;-57
2022/01/17 08:32:05;;;;;;;31.52;5.75;;;7.90;98.30;;;;;;4989060;28;20054;-58
2022/01/17 08:34:32;;;;;;;25.73;4.78;;;7.90;98.30;;;;;;4989947;28;20054;-58
2022/01/17 08:36:59;;;;;;;26.25;4.35;;;7.90;98.20;;;;;;4989799;28;20137;-58
2022/01/17 08:39:26;;;;;;;28.23;4.38;;;7.90;98.10;;;;;;4989964;28;20471;-58
2022/01/17 08:41:54;;;;;;;26.52;6.05;;;8.00;98.10;;;;;;4990712;28;21798;-58
2022/01/17 08:44:21;;;;;;;32.53;4.97;;;8.00;98.10;;;;;;4988531;28;20058;-58
2022/01/17 08:46:48;;;;;;;32.05;5.05;;;8.00;98.10;;;;;;4989430;28;20058;-58
2022/01/17 08:49:17;;;;;;;29.65;4.80;;;8.00;98.00;;;;;;4989370;28;20058;-59
2022/01/17 08:51:44;;;;;;;33.78;5.53;;;8.10;98.00;;;;;;4989642;28;20054;-58
2022/01/17 08:54:11;;;;;;;35.90;5.97;;;8.10;98.00;;;;;;4988678;28;20109;-58
2022/01/17 08:56:38;;;;;;;32.30;5.55;;;8.10;97.90;;;;;;4988817;28;20054;-58
2022/01/17 08:59:05;;;;;;;28.95;4.88;;;8.10;97.80;;;;;;4987813;28;20057;-58
2022/01/17 09:01:32;;;;;;;35.55;5.50;;;8.10;97.80;;;;;;4989126;28;20063;-58
2022/01/17 09:03:59;;;;;;;31.52;5.05;;;8.20;97.80;;;;;;4986083;28;20055;-58
2022/01/17 09:06:27;;;;;;;36.88;5.97;;;8.20;97.70;;;;;;4989148;28;20061;-59
2022/01/17 09:08:54;;;;;;;39.03;6.13;;;8.30;97.70;;;;;;4988447;28;20054;-58
2022/01/17 09:11:21;;;;;;;34.05;6.38;;;8.30;97.70;;;;;;4989960;28;20618;-58
2022/01/17 09:13:48;;;;;;;34.78;5.50;;;8.30;97.60;;;;;;4987951;28;20050;-58
2022/01/17 09:16:16;;;;;;;24.60;5.65;;;8.40;97.60;;;;;;4989400;28;20050;-58
2022/01/17 09:18:43;;;;;;;35.25;5.07;;;8.50;97.60;;;;;;4989133;28;20066;-58
2022/01/17 09:21:10;;;;;;;27.85;5.05;;;8.50;97.60;;;;;;4989436;28;20050;-58
2022/01/17 09:23:39;;;;;;;31.30;6.20;;;8.50;97.50;;;;;;4988783;28;20638;-58
2022/01/17 09:26:06;;;;;;;30.42;5.97;;;8.60;97.50;;;;;;4989487;28;20141;-59
2022/01/17 09:28:33;;;;;;;25.58;6.00;;;8.60;97.40;;;;;;4986715;28;20056;-58
2022/01/17 09:31:00;;;;;;;36.92;5.78;;;8.70;97.40;;;;;;4987952;28;20058;-58
2022/01/17 09:33:27;;;;;;;33.08;5.20;;;8.60;97.40;;;;;;4987435;28;20047;-58
2022/01/17 09:35:54;;;;;;;37.92;6.07;;;8.70;97.40;;;;;;4987876;28;20150;-58
2022/01/17 09:38:21;;;;;;;38.83;6.35;;;8.70;97.30;;;;;;4988320;28;20889;-59
2022/01/17 09:40:49;;;;;;;33.60;6.38;;;8.70;97.30;;;;;;4988101;28;20058;-58
2022/01/17 09:43:16;;;;;;;36.88;6.38;;;8.80;97.30;;;;;;4985749;28;20460;-58
2022/01/17 09:45:44;;;;;;;42.70;7.35;;;8.90;97.30;;;;;;4987140;28;20055;-58
2022/01/17 09:48:19;;;;;;;36.15;5.93;;;8.90;97.20;;;;;;4987953;28;20082;-58
2022/01/17 09:51:01;;;;;;;36.70;6.53;;;8.90;97.10;;;;;;4987834;28;20109;-58
2022/01/17 09:53:29;;;;;;;35.92;6.45;;;8.90;97.10;;;;;;4987889;28;20604;-59
2022/01/17 09:56:02;;;;;;;42.60;8.00;;;9.00;97.10;;;;;;4988794;28;20058;-58
2022/01/17 09:58:30;;;;;;;33.22;5.22;;;9.00;97.10;;;;;;4987978;28;20058;-58
2022/01/17 10:00:59;;;;;;;49.22;6.95;;;9.10;97.20;;;;;;4988728;28;20429;-58
2022/01/17 10:03:26;;;;;;;40.28;7.72;;;9.20;96.90;;;;;;4986262;28;20063;-59
2022/01/17 10:05:54;;;;;;;42.50;6.88;;;9.20;96.90;;;;;;4985605;28;20145;-59
2022/01/17 10:08:21;;;;;;;41.92;6.95;;;9.30;96.90;;;;;;4987397;28;20050;-59
2022/01/17 10:10:54;;;;;;;39.55;6.53;;;9.50;96.90;;;;;;4986374;28;20054;-59
2022/01/17 10:13:24;;;;;;;37.30;6.75;;;9.60;96.50;;;;;;4986725;28;20110;-59
2022/01/17 10:16:04;;;;;;;36.75;7.07;;;9.80;96.40;;;;;;4987477;28;20058;-59
2022/01/17 10:18:42;;;;;;;34.00;6.65;;;9.80;96.30;;;;;;4985573;28;20109;-59
2022/01/17 10:21:15;;;;;;;35.97;6.65;;;9.80;96.10;;;;;;4986289;28;20054;-58
2022/01/17 10:26:56;;;;;;;35.70;7.05;;;9.80;96.20;;;;;;4988649;28;20050;-59
2022/01/17 10:35:21;;;;;;;39.35;7.35;;;10.40;95.60;;;;;;4988033;28;20046;-59
2022/01/17 10:38:04;;;;;;;43.03;7.35;;;10.20;95.70;;;;;;4986398;28;20054;-59
2022/01/17 10:40:33;;;;;;;41.85;7.13;;;10.10;95.70;;;;;;4985625;28;20054;-59
2022/01/17 10:43:02;;;;;;;32.90;6.78;;;9.90;95.90;;;;;;4986458;28;20509;-59
2022/01/17 10:45:36;;;;;;;42.95;7.72;;;9.80;96.00;;;;;;4985449;28;20124;-59
2022/01/17 10:48:04;;;;;;;51.40;8.70;;;9.80;96.10;;;;;;4985302;28;20917;-59
2022/01/17 10:50:35;;;;;;;40.03;6.80;;;9.70;96.20;;;;;;4985861;28;20069;-59
2022/01/17 10:53:04;;;;;;;36.15;7.28;;;9.70;96.30;;;;;;4985834;28;20054;-59
2022/01/17 10:55:33;;;;;;;43.55;7.47;;;9.70;96.40;;;;;;4986613;28;20065;-59
2022/01/17 10:58:03;;;;;;;41.50;8.07;;;9.80;96.40;;;;;;4986390;28;21073;-59
2022/01/17 11:00:33;;;;;;;41.03;6.70;;;9.80;96.30;;;;;;4986498;28;20141;-59
2022/01/17 11:03:02;;;;;;;43.40;8.45;;;9.90;96.20;;;;;;4986670;28;20058;-59
2022/01/17 11:05:31;;;;;;;39.55;7.60;;;10.10;96.00;;;;;;4985233;28;20423;-59
2022/01/17 11:08:01;;;;;;;48.65;8.00;;;10.20;95.70;;;;;;4985355;28;20097;-59
2022/01/17 11:10:30;;;;;;;46.08;9.20;;;10.30;95.50;;;;;;4985304;28;21964;-59
2022/01/17 11:13:02;;;;;;;49.03;8.15;;;10.20;95.40;;;;;;4986381;28;20055;-59
2022/01/17 11:15:33;;;;;;;40.97;8.20;;;10.10;95.50;;;;;;4985874;28;20258;-59
2022/01/17 11:18:04;;;;;;;37.03;7.93;;;10.20;95.60;;;;;;4985758;28;20058;-59
2022/01/17 11:20:33;;;;;;;39.95;7.90;;;10.20;95.40;;;;;;4985897;28;20054;-60
2022/01/17 11:23:02;;;;;;;42.17;7.65;;;10.30;95.30;;;;;;4986650;28;20056;-59
2022/01/17 11:25:31;;;;;;;47.90;8.13;;;10.30;95.20;;;;;;4985479;28;20161;-59
2022/01/17 11:27:59;;;;;;;36.63;8.52;;;10.30;95.20;;;;;;4983332;28;20058;-59
2022/01/17 11:30:27;;;;;;;48.67;8.27;;;10.40;95.10;;;;;;4985291;28;20050;-59
2022/01/17 11:32:57;;;;;;;43.65;9.07;;;10.40;95.00;;;;;;4985827;28;20054;-59
2022/01/17 11:35:26;;;;;;;47.60;8.00;;;10.50;95.00;;;;;;4984860;28;20562;-59
2022/01/17 11:37:55;;;;;;;46.85;10.02;;;10.60;95.00;;;;;;4983835;28;20050;-59
2022/01/17 11:40:27;;;;;;;45.10;7.60;;;10.60;94.90;;;;;;4985510;28;20070;-59
2022/01/17 11:42:54;;;;;;;42.30;9.20;;;10.60;95.00;;;;;;4985270;28;20485;-59
2022/01/17 11:45:37;;;;;;;43.20;7.95;;;10.50;95.00;;;;;;4985292;28;21517;-59
2022/01/17 11:48:25;;;;;;;43.90;7.70;;;10.50;94.60;;;;;;4981324;28;20064;-59
2022/01/17 11:50:54;;;;;;;40.78;7.82;;;10.50;94.90;;;;;;4985995;28;20058;-59
2022/01/17 11:53:50;;;;;;;40.88;7.53;;;10.50;95.20;;;;;;4986317;28;20101;-59
2022/01/17 11:56:40;;;;;;;37.95;7.75;;;10.50;94.80;;;;;;4982853;28;20058;-59
2022/01/17 11:59:32;;;;;;;47.20;8.38;;;10.40;94.90;;;;;;4980091;28;20096;-59
2022/01/17 12:02:20;;;;;;;37.95;8.15;;;10.30;95.10;;;;;;4984029;28;20181;-59
2022/01/17 12:05:24;;;;;;;39.47;8.30;;;10.30;95.10;;;;;;4985609;28;21093;-59
2022/01/17 12:07:54;;;;;;;41.65;7.35;;;10.20;95.30;;;;;;4986519;28;20052;-62
2022/01/17 12:10:24;;;;;;;37.05;7.22;;;10.30;95.40;;;;;;4985594;28;20054;-64
2022/01/17 12:13:35;;;;;;;42.92;9.60;;;10.30;95.40;;;;;;4985637;28;20739;-62
2022/01/17 12:16:09;;;;;;;41.05;7.80;;;10.30;95.30;;;;;;4975923;28;20092;-62
2022/01/17 12:18:39;;;;;;;40.38;9.43;;;10.40;95.40;;;;;;4984216;28;20269;-62
2022/01/17 12:21:28;;;;;;;42.65;8.40;;;10.50;95.40;;;;;;4983998;28;20526;-62
2022/01/17 12:24:36;;;;;;;49.55;8.32;;;10.60;95.20;;;;;;4985454;28;20089;-62
2022/01/17 12:27:13;;;;;;;42.17;8.73;;;10.50;95.10;;;;;;4985696;28;21255;-63
2022/01/17 12:29:43;;;;;;;49.10;9.27;;;10.40;95.10;;;;;;4983761;28;20067;-63
2022/01/17 12:32:48;;;;;;;42.05;7.75;;;10.30;95.20;;;;;;4978744;28;20057;-63
2022/01/17 12:35:29;;;;;;;40.97;9.25;;;10.30;95.30;;;;;;4980154;28;20054;-63
2022/01/17 12:38:04;;;;;;;46.05;7.90;;;10.20;95.50;;;;;;4981157;28;20057;-63
2022/01/17 12:40:35;;;;;;;51.55;9.57;;;10.10;95.60;;;;;;4980866;28;20061;-63
2022/01/17 12:43:04;;;;;;;50.22;9.18;;;10.10;95.70;;;;;;4980070;28;20053;-63
2022/01/17 12:45:34;;;;;;;49.55;11.07;;;10.10;95.80;;;;;;4981244;28;20065;-63
2022/01/17 12:48:03;;;;;;;47.33;9.80;;;10.10;95.80;;;;;;4980893;28;20952;-63
2022/01/17 12:50:32;;;;;;;50.00;8.80;;;10.10;95.80;;;;;;4981671;28;20074;-63
2022/01/17 12:53:01;;;;;;;41.72;8.13;;;10.10;95.80;;;;;;4980018;28;20061;-63
2022/01/17 12:55:37;;;;;;;57.22;8.70;;;10.00;95.80;;;;;;4981248;28;20724;-62
2022/01/17 12:58:14;;;;;;;53.90;10.85;;;10.00;95.80;;;;;;4984102;28;20058;-63
2022/01/17 13:00:49;;;;;;;39.53;7.55;;;10.00;95.80;;;;;;4985998;28;20057;-63
2022/01/17 13:03:16;;;;;;;47.33;8.45;;;10.00;95.80;;;;;;4986374;28;20054;-63
2022/01/17 13:05:44;;;;;;;50.42;8.63;;;10.00;95.80;;;;;;4985101;28;20053;-63
2022/01/17 13:08:12;;;;;;;41.65;8.65;;;10.00;95.90;;;;;;4984732;28;20055;-63
2022/01/17 13:10:40;;;;;;;40.92;8.32;;;10.00;95.80;;;;;;4983186;28;20105;-63
2022/01/17 13:13:14;;;;;;;50.33;8.30;;;10.00;95.80;;;;;;4985679;28;20064;-63
2022/01/17 13:15:41;;;;;;;50.47;9.13;;;10.00;95.80;;;;;;4986128;28;22417;-63